createdAt,value
2023-01-18T00:01:13.936Z,99522.41
2023-01-18T00:03:42.438Z,99532.22
2023-01-18T00:06:10.982Z,99529.41
2023-01-18T00:08:40.139Z,99535.53
2023-01-18T00:11:12.689Z,99538.72
2023-01-18T00:13:40.054Z,99543.56
2023-01-18T00:16:12.808Z,99540.94
2023-01-18T00:18:40.159Z,99534.53
2023-01-18T00:21:09.529Z,99523.66
2023-01-18T00:23:37.885Z,99539.00
2023-01-18T00:26:11.689Z,99537.50
2023-01-18T00:28:39.841Z,99534.81
2023-01-18T00:31:15.313Z,99537.84
2023-01-18T00:33:43.650Z,99538.78
2023-01-18T00:36:11.217Z,99542.38
2023-01-18T00:38:38.211Z,99534.72
2023-01-18T00:41:05.461Z,99533.31
2023-01-18T00:43:41.585Z,99523.38
2023-01-18T00:46:17.257Z,99520.19
2023-01-18T00:48:44.738Z,99530.97
2023-01-18T00:51:14.205Z,99522.56
2023-01-18T00:53:44.190Z,99530.41
2023-01-18T00:56:13.712Z,99519.88
2023-01-18T00:58:41.092Z,99524.66
2023-01-18T01:01:10.244Z,99522.84
2023-01-18T01:03:56.178Z,99529.53
2023-01-18T01:06:46.479Z,99530.81
2023-01-18T01:09:40.437Z,99519.22
2023-01-18T01:12:26.099Z,99531.75
2023-01-18T01:15:11.854Z,99526.09
2023-01-18T01:17:58.054Z,99510.75
2023-01-18T01:20:44.861Z,99513.94
2023-01-18T01:23:37.012Z,99504.19
2023-01-18T01:26:08.046Z,99517.50
2023-01-18T01:28:43.045Z,99527.75
2023-01-18T01:31:12.575Z,99517.53
2023-01-18T01:33:40.290Z,99508.63
2023-01-18T01:36:14.113Z,99517.31
2023-01-18T01:38:42.215Z,99495.28
2023-01-18T01:41:16.758Z,99492.31
2023-01-18T01:43:52.091Z,99498.78
2023-01-18T01:46:43.657Z,99505.16
2023-01-18T01:49:13.402Z,99511.69
2023-01-18T01:51:43.344Z,99523.22
2023-01-18T01:54:39.516Z,99519.78
2023-01-18T01:57:17.528Z,99517.06
2023-01-18T01:59:52.813Z,99516.97
2023-01-18T02:02:20.423Z,99513.13
2023-01-18T02:04:53.799Z,99521.34
2023-01-18T02:07:26.517Z,99514.38
2023-01-18T02:09:54.384Z,99517.63
2023-01-18T02:12:21.435Z,99503.78
2023-01-18T02:14:48.477Z,99503.03
2023-01-18T02:17:54.054Z,99507.78
2023-01-18T02:20:42.454Z,99496.97
2023-01-18T02:23:18.314Z,99503.19
2023-01-18T02:26:09.680Z,99509.53
2023-01-18T02:28:37.906Z,99508.44
2023-01-18T02:31:17.613Z,99512.72
2023-01-18T02:33:54.723Z,99511.28
2023-01-18T02:36:30.398Z,99517.91
2023-01-18T02:39:10.607Z,99505.75
2023-01-18T02:42:10.920Z,99501.31
2023-01-18T02:45:01.165Z,99512.91
2023-01-18T02:47:29.945Z,99499.31
2023-01-18T02:49:57.863Z,99482.19
2023-01-18T02:52:43.340Z,99496.81
2023-01-18T02:55:21.950Z,99503.47
2023-01-18T02:57:49.126Z,99515.16
2023-01-18T03:00:19.176Z,99508.03
2023-01-18T03:02:50.266Z,99520.59
2023-01-18T03:05:18.300Z,99513.06
2023-01-18T03:07:57.485Z,99505.16
2023-01-18T03:26:53.413Z,99485.47
2023-01-18T03:29:41.604Z,99487.66
2023-01-18T03:32:33.961Z,99471.19
2023-01-18T03:35:10.830Z,99487.06
2023-01-18T03:37:41.240Z,99493.56
2023-01-18T03:40:10.671Z,99493.66
2023-01-18T03:42:45.225Z,99505.09
2023-01-18T03:45:22.497Z,99498.28
2023-01-18T03:47:50.583Z,99507.22
2023-01-18T03:50:17.942Z,99498.75
2023-01-18T03:52:52.150Z,99504.16
2023-01-18T03:55:33.599Z,99509.09
2023-01-18T03:58:09.862Z,99493.25
2023-01-18T04:00:38.581Z,99515.22
2023-01-18T04:03:06.540Z,99522.00
2023-01-18T04:05:34.445Z,99524.41
2023-01-18T04:08:01.432Z,99520.13
2023-01-18T04:10:28.440Z,99518.31
2023-01-18T04:12:55.508Z,99525.63
2023-01-18T04:15:22.517Z,99529.53
2023-01-18T04:17:53.623Z,99528.16
2023-01-18T04:20:20.505Z,99529.22
2023-01-18T04:22:54.719Z,99529.25
2023-01-18T04:25:22.036Z,99518.22
2023-01-18T04:27:48.932Z,99519.06
2023-01-18T04:30:16.390Z,99518.88
2023-01-18T04:32:46.428Z,99522.72
2023-01-18T04:35:14.057Z,99514.47
2023-01-18T04:37:41.889Z,99510.09
2023-01-18T04:40:10.138Z,99513.66
2023-01-18T04:42:37.235Z,99509.47
2023-01-18T04:45:04.455Z,99518.41
2023-01-18T04:47:31.498Z,99516.88
2023-01-18T04:49:58.332Z,99527.31
2023-01-18T04:52:27.017Z,99522.25
2023-01-18T04:54:54.024Z,99526.66
2023-01-18T04:57:21.041Z,99513.91
2023-01-18T04:59:48.363Z,99513.50
2023-01-18T05:02:15.520Z,99530.28
2023-01-18T05:04:43.887Z,99518.84
2023-01-18T05:07:11.869Z,99520.72
2023-01-18T05:09:38.845Z,99524.66
2023-01-18T05:12:05.870Z,99522.28
2023-01-18T05:14:33.076Z,99523.00
2023-01-18T05:16:59.980Z,99521.53
2023-01-18T05:19:30.617Z,99523.38
2023-01-18T05:21:57.661Z,99517.81
2023-01-18T05:24:24.700Z,99518.25
2023-01-18T05:26:51.733Z,99513.50
2023-01-18T05:29:18.773Z,99513.50
2023-01-18T05:31:45.753Z,99515.41
2023-01-18T05:34:12.802Z,99523.41
2023-01-18T05:36:39.771Z,99527.03
2023-01-18T05:39:06.899Z,99529.28
2023-01-18T05:41:33.831Z,99523.38
2023-01-18T05:44:00.763Z,99538.06
2023-01-18T05:46:27.737Z,99526.59
2023-01-18T05:48:58.916Z,99529.91
2023-01-18T05:51:26.339Z,99537.91
2023-01-18T05:53:53.300Z,99541.03
2023-01-18T05:56:20.298Z,99532.63
2023-01-18T05:58:47.557Z,99531.56
2023-01-18T06:01:14.529Z,99538.38
2023-01-18T06:03:41.671Z,99545.38
2023-01-18T06:06:08.918Z,99532.06
2023-01-18T06:08:35.975Z,99545.63
2023-01-18T06:11:03.556Z,99535.38
2023-01-18T06:13:31.859Z,99535.47
2023-01-18T06:16:00.428Z,99529.91
2023-01-18T06:18:30.101Z,99524.34
2023-01-18T06:21:00.274Z,99543.47
2023-01-18T06:23:29.746Z,99542.34
2023-01-18T06:25:56.885Z,99522.97
2023-01-18T06:28:23.970Z,99542.38
2023-01-18T06:30:55.507Z,99540.75
2023-01-18T06:33:24.069Z,99554.34
2023-01-18T06:35:51.329Z,99560.47
2023-01-18T06:38:18.314Z,99552.97
2023-01-18T06:40:45.322Z,99555.75
2023-01-18T06:43:14.459Z,99564.03
2023-01-18T06:45:41.660Z,99566.06
2023-01-18T06:48:08.917Z,99568.47
2023-01-18T06:50:35.880Z,99563.66
2023-01-18T06:53:02.903Z,99574.22
2023-01-18T06:55:29.908Z,99581.50
2023-01-18T06:57:57.233Z,99579.97
2023-01-18T07:00:24.614Z,99591.94
2023-01-18T07:02:53.148Z,99586.69
2023-01-18T07:05:20.296Z,99590.28
2023-01-18T07:07:47.245Z,99606.22
2023-01-18T07:10:16.372Z,99591.22
2023-01-18T07:12:47.527Z,99613.25
2023-01-18T07:15:21.661Z,99608.25
2023-01-18T07:17:50.562Z,99598.44
2023-01-18T07:20:17.967Z,99618.88
2023-01-18T07:22:44.940Z,99609.97
2023-01-18T07:25:13.648Z,99606.09
2023-01-18T07:27:43.675Z,99602.38
2023-01-18T07:30:14.731Z,99607.31
2023-01-18T07:32:50.486Z,99613.22
2023-01-18T07:35:20.247Z,99604.72
2023-01-18T07:37:53.644Z,99611.50
2023-01-18T07:40:21.985Z,99610.41
2023-01-18T07:42:50.110Z,99613.19
2023-01-18T07:45:17.224Z,99624.31
2023-01-18T07:47:46.447Z,99616.81
2023-01-18T07:50:14.468Z,99603.34
2023-01-18T07:52:41.520Z,99609.16
2023-01-18T07:55:09.198Z,99619.16
2023-01-18T07:57:36.168Z,99617.75
2023-01-18T08:00:03.248Z,99625.72
2023-01-18T08:02:39.504Z,99640.75
2023-01-18T08:05:10.076Z,99643.59
2023-01-18T08:07:36.985Z,99644.75
2023-01-18T08:10:04.192Z,99652.22
2023-01-18T08:12:31.088Z,99647.16
2023-01-18T08:14:58.099Z,99658.66
2023-01-18T08:17:25.185Z,99648.78
2023-01-18T08:19:52.251Z,99653.53
2023-01-18T08:22:19.069Z,99654.31
2023-01-18T08:24:46.016Z,99639.03
2023-01-18T08:27:13.302Z,99660.28
2023-01-18T08:29:40.179Z,99656.03
2023-01-18T08:32:07.177Z,99662.63
2023-01-18T08:34:34.109Z,99666.38
2023-01-18T08:37:00.997Z,99655.00
2023-01-18T08:39:28.064Z,99661.63
2023-01-18T08:41:56.219Z,99661.56
2023-01-18T08:44:23.331Z,99657.09
2023-01-18T08:46:50.262Z,99657.50
2023-01-18T08:49:17.338Z,99648.53
2023-01-18T08:51:44.372Z,99647.06
2023-01-18T08:54:11.306Z,99649.69
2023-01-18T08:56:38.467Z,99646.97
2023-01-18T08:59:09.111Z,99645.75
2023-01-18T09:01:36.186Z,99658.31
2023-01-18T09:04:03.224Z,99659.66
2023-01-18T09:06:32.326Z,99657.97
2023-01-18T09:08:59.737Z,99646.78
2023-01-18T09:11:26.916Z,99648.31
2023-01-18T09:14:00.750Z,99625.91
2023-01-18T09:16:30.135Z,99631.81
2023-01-18T09:18:58.457Z,99628.94
2023-01-18T09:21:28.105Z,99631.25
2023-01-18T09:23:55.210Z,99625.84
2023-01-18T09:26:22.133Z,99618.31
2023-01-18T09:28:52.373Z,99622.56
2023-01-18T09:31:21.572Z,99615.84
2023-01-18T09:33:53.695Z,99617.28
2023-01-18T09:36:26.558Z,99609.13
2023-01-18T09:38:57.415Z,99614.69
2023-01-18T09:41:36.472Z,99606.94
2023-01-18T09:44:20.680Z,99626.72
2023-01-18T09:46:54.393Z,99636.66
2023-01-18T09:49:38.286Z,99628.34
2023-01-18T09:52:09.771Z,99626.34
2023-01-18T09:55:01.766Z,99622.50
2023-01-18T09:57:35.353Z,99626.66
2023-01-18T10:00:05.109Z,99641.47
2023-01-18T10:02:39.418Z,99619.19
2023-01-18T10:05:15.076Z,99618.38
2023-01-18T10:07:55.181Z,99614.25
2023-01-18T10:10:22.562Z,99609.38
2023-01-18T10:13:00.809Z,99613.97
2023-01-18T10:15:35.177Z,99619.63
2023-01-18T10:18:02.015Z,99601.28
2023-01-18T10:20:40.334Z,99598.75
2023-01-18T10:23:17.383Z,99592.97
2023-01-18T10:26:03.944Z,99596.19
2023-01-18T10:28:55.367Z,99587.81
2023-01-18T10:31:31.471Z,99591.16
2023-01-18T10:34:01.335Z,99598.97
2023-01-18T10:36:41.934Z,99587.00
2023-01-18T10:39:28.200Z,99589.84
2023-01-18T10:42:00.541Z,99585.28
2023-01-18T10:44:29.113Z,99594.34
2023-01-18T10:47:00.935Z,99598.69
2023-01-18T10:49:41.426Z,99592.59
2023-01-18T10:52:29.476Z,99600.31
2023-01-18T10:55:02.214Z,99600.78
2023-01-18T10:57:34.840Z,99620.44
2023-01-18T11:00:05.967Z,99618.22
2023-01-18T11:02:37.025Z,99632.03
2023-01-18T11:05:20.873Z,99626.59
2023-01-18T11:07:48.413Z,99617.91
2023-01-18T11:10:27.459Z,99626.00
2023-01-18T11:12:55.020Z,99616.44
2023-01-18T11:15:27.801Z,99617.50
2023-01-18T11:17:58.170Z,99630.97
2023-01-18T11:20:34.765Z,99621.47
2023-01-18T11:23:06.466Z,99616.94
2023-01-18T11:25:45.348Z,99607.69
2023-01-18T11:28:19.196Z,99620.13
2023-01-18T11:31:13.073Z,99622.28
2023-01-18T11:33:55.947Z,99630.44
2023-01-18T11:36:39.625Z,99633.22
2023-01-18T11:39:27.870Z,99625.28
2023-01-18T11:42:30.417Z,99624.13
2023-01-18T11:45:12.545Z,99612.97
2023-01-18T11:47:57.887Z,99621.69
2023-01-18T11:50:34.202Z,99614.16
2023-01-18T11:53:11.223Z,99615.03
2023-01-18T11:56:06.553Z,99619.44
2023-01-18T11:58:35.524Z,99616.59
2023-01-18T12:01:26.794Z,99609.31
2023-01-18T12:03:59.455Z,99620.00
2023-01-18T12:06:42.617Z,99628.03
2023-01-18T12:09:30.435Z,99626.38
2023-01-18T12:12:09.586Z,99615.97
2023-01-18T12:14:59.533Z,99611.09
2023-01-18T12:17:53.092Z,99621.53
2023-01-18T12:20:53.838Z,99618.94
2023-01-18T12:23:42.520Z,99621.22
2023-01-18T12:26:35.164Z,99631.72
2023-01-18T12:29:24.336Z,99639.91
2023-01-18T12:32:15.974Z,99643.81
2023-01-18T12:34:59.073Z,99647.47
2023-01-18T12:38:02.973Z,99633.47
2023-01-18T12:40:46.215Z,99648.44
2023-01-18T12:43:31.347Z,99650.69
2023-01-18T12:46:24.291Z,99654.31
2023-01-18T12:49:00.779Z,99648.72
2023-01-18T12:51:34.237Z,99661.91
2023-01-18T12:54:25.260Z,99679.47
2023-01-18T12:56:56.439Z,99682.72
2023-01-18T12:59:51.446Z,99687.09
2023-01-18T13:02:25.585Z,99682.69
2023-01-18T13:05:15.672Z,99698.34
2023-01-18T13:07:48.751Z,99689.53
2023-01-18T13:10:21.342Z,99682.75
2023-01-18T13:12:50.906Z,99706.69
2023-01-18T13:15:56.392Z,99679.09
2023-01-18T13:18:58.630Z,99676.66
2023-01-18T13:21:47.299Z,99669.47
2023-01-18T13:24:22.247Z,99657.50
2023-01-18T13:26:49.714Z,99661.47
2023-01-18T13:29:20.144Z,99645.09
2023-01-18T13:31:47.480Z,99651.84
2023-01-18T13:34:44.898Z,99657.06
2023-01-18T13:37:45.743Z,99667.00
2023-01-18T13:40:27.735Z,99680.94
2023-01-18T13:42:54.945Z,99677.72
2023-01-18T13:45:29.111Z,99672.53
2023-01-18T13:48:00.084Z,99677.28
2023-01-18T13:50:39.503Z,99679.25
2023-01-18T13:53:15.825Z,99692.78
2023-01-18T13:55:54.975Z,99698.34
2023-01-18T13:58:26.552Z,99705.44
2023-01-18T14:00:55.875Z,99709.03
2023-01-18T14:03:28.161Z,99699.41
2023-01-18T14:05:59.515Z,99704.56
2023-01-18T14:08:31.530Z,99701.78
2023-01-18T14:11:08.035Z,99707.31
2023-01-18T14:13:50.037Z,99711.66
2023-01-18T14:16:34.104Z,99708.88
2023-01-18T14:19:17.688Z,99711.66
2023-01-18T14:21:53.874Z,99711.16
2023-01-18T14:24:47.261Z,99719.50
2023-01-18T14:27:20.213Z,99735.00
2023-01-18T14:30:01.572Z,99734.56
2023-01-18T14:32:35.687Z,99740.13
2023-01-18T14:35:04.443Z,99747.63
2023-01-18T14:37:34.507Z,99738.41
2023-01-18T14:40:27.120Z,99744.75
2023-01-18T14:43:00.024Z,99750.28
2023-01-18T14:45:36.358Z,99753.84
2023-01-18T14:48:17.407Z,99749.00
2023-01-18T14:50:47.489Z,99770.47
2023-01-18T14:53:22.657Z,99762.50
2023-01-18T14:56:03.276Z,99770.84
2023-01-18T14:58:43.034Z,99777.13
2023-01-18T15:01:26.187Z,99770.75
2023-01-18T15:03:56.246Z,99783.78
2023-01-18T15:06:44.635Z,99785.03
2023-01-18T15:09:13.031Z,99791.66
2023-01-18T15:11:42.743Z,99788.84
2023-01-18T15:14:23.243Z,99796.00
2023-01-18T15:29:14.093Z,99793.81
2023-01-18T15:31:53.023Z,99797.88
2023-01-18T15:34:43.192Z,99790.13
2023-01-18T15:37:26.895Z,99794.88
2023-01-18T15:40:22.710Z,99798.03
2023-01-18T15:43:01.898Z,99800.09
2023-01-18T15:45:38.789Z,99800.47
2023-01-18T15:48:15.339Z,99797.59
2023-01-18T15:50:50.740Z,99822.25
2023-01-18T15:53:26.805Z,99838.59
2023-01-18T15:55:58.489Z,99831.38
2023-01-18T15:58:28.734Z,99830.59
2023-01-18T16:00:59.436Z,99845.31
2023-01-18T16:03:39.303Z,99852.06
2023-01-18T16:06:18.952Z,99859.63
2023-01-18T16:09:12.039Z,99868.31
2023-01-18T16:11:57.712Z,99876.16
2023-01-18T16:14:25.647Z,99882.91
2023-01-18T16:16:54.255Z,99887.75
2023-01-18T16:19:26.100Z,99891.34
2023-01-18T16:21:59.873Z,99890.09
2023-01-18T16:24:27.451Z,99889.53
2023-01-18T16:26:56.843Z,99896.31
2023-01-18T16:29:23.904Z,99893.41
2023-01-18T16:31:50.878Z,99900.63
2023-01-18T16:34:26.192Z,99891.38
2023-01-18T16:36:54.449Z,99902.06
2023-01-18T16:39:21.507Z,99899.31
2023-01-18T16:41:54.636Z,99896.47
2023-01-18T16:44:22.018Z,99904.75
2023-01-18T16:46:49.952Z,99921.03
2023-01-18T16:49:16.802Z,99924.06
2023-01-18T16:51:43.733Z,99918.84
2023-01-18T16:54:10.636Z,99917.63
2023-01-18T16:56:39.209Z,99926.66
2023-01-18T16:59:18.835Z,99925.81
2023-01-18T17:01:46.366Z,99937.53
2023-01-18T17:04:13.896Z,99940.72
2023-01-18T17:06:42.519Z,99945.94
2023-01-18T17:09:20.067Z,99943.84
2023-01-18T17:11:47.995Z,99946.91
2023-01-18T17:14:15.028Z,99946.09
2023-01-18T17:16:43.346Z,99957.03
2023-01-18T17:19:16.199Z,99947.88
2023-01-18T17:21:43.415Z,99950.97
2023-01-18T17:24:11.324Z,99957.75
2023-01-18T17:26:40.319Z,99951.38
2023-01-18T17:29:08.142Z,99970.78
2023-01-18T17:31:41.684Z,99967.56
2023-01-18T17:34:17.163Z,99971.81
2023-01-18T17:36:44.266Z,99964.78
2023-01-18T17:39:11.876Z,99971.88
2023-01-18T17:41:38.956Z,99970.34
2023-01-18T17:44:05.897Z,99974.97
2023-01-18T17:46:34.296Z,99974.88
2023-01-18T17:49:02.920Z,99978.03
2023-01-18T17:51:30.007Z,99986.59
2023-01-18T17:54:00.637Z,99983.53
2023-01-18T17:56:27.657Z,99990.16
2023-01-18T17:58:55.029Z,99998.50
2023-01-18T18:01:22.727Z,100006.84
2023-01-18T18:03:51.488Z,99992.72
2023-01-18T18:06:30.199Z,100014.50
2023-01-18T18:08:57.562Z,100009.34
2023-01-18T18:11:24.770Z,99997.97
2023-01-18T18:13:51.888Z,99992.06
2023-01-18T18:16:19.427Z,99995.41
2023-01-18T18:18:46.509Z,100000.16
2023-01-18T18:21:13.453Z,99988.13
2023-01-18T18:23:40.341Z,100000.34
2023-01-18T18:26:07.581Z,99992.28
2023-01-18T18:28:34.500Z,99988.78
2023-01-18T18:31:01.553Z,99985.84
2023-01-18T18:33:29.635Z,99998.81
2023-01-18T18:35:57.196Z,99992.38
2023-01-18T18:38:24.177Z,99981.28
2023-01-18T18:40:51.409Z,99991.13
2023-01-18T18:43:18.472Z,99994.34
2023-01-18T18:45:46.037Z,100009.84
2023-01-18T18:48:13.710Z,100002.97
2023-01-18T18:50:41.360Z,100003.78
2023-01-18T18:53:08.528Z,100006.91
2023-01-18T18:55:35.447Z,100017.94
2023-01-18T18:58:02.395Z,100015.97
2023-01-18T19:00:29.617Z,100013.53
2023-01-18T19:03:01.126Z,100010.97
2023-01-18T19:05:29.908Z,100013.53
2023-01-18T19:07:56.883Z,100008.78
2023-01-18T19:10:27.532Z,100007.66
2023-01-18T19:12:55.217Z,100008.41
2023-01-18T19:15:22.361Z,100007.94
2023-01-18T19:17:50.538Z,100016.69
2023-01-18T19:20:20.005Z,100017.31
2023-01-18T19:22:47.870Z,100011.75
2023-01-18T19:25:15.492Z,100011.81
2023-01-18T19:27:43.134Z,100021.16
2023-01-18T19:30:18.659Z,100017.56
2023-01-18T19:32:51.016Z,100020.44
2023-01-18T19:35:19.575Z,100025.63
2023-01-18T19:37:47.590Z,100034.78
2023-01-18T19:40:16.891Z,100027.31
2023-01-18T19:42:44.552Z,100025.63
2023-01-18T19:45:16.590Z,100038.25
2023-01-18T19:47:48.374Z,100048.03
2023-01-18T19:50:16.137Z,100052.22
2023-01-18T19:52:43.270Z,100055.38
2023-01-18T19:55:11.549Z,100052.25
2023-01-18T19:57:38.603Z,100059.22
2023-01-18T20:00:10.112Z,100059.97
2023-01-18T20:02:41.389Z,100049.41
2023-01-18T20:05:08.857Z,100057.03
2023-01-18T20:07:38.711Z,100054.78
2023-01-18T20:10:06.806Z,100053.59
2023-01-18T20:12:33.850Z,100056.03
2023-01-18T20:15:00.913Z,100046.47
2023-01-18T20:17:27.794Z,100057.03
2023-01-18T20:19:54.720Z,100059.44
2023-01-18T20:22:22.979Z,100056.13
2023-01-18T20:24:50.006Z,100049.13
2023-01-18T20:27:17.266Z,100057.38
2023-01-18T20:29:44.620Z,100046.00
2023-01-18T20:32:16.808Z,100050.94
2023-01-18T20:34:47.044Z,100055.75
2023-01-18T20:37:15.798Z,100060.25
2023-01-18T20:39:42.791Z,100068.69
2023-01-18T20:42:10.120Z,100064.72
2023-01-18T20:44:37.099Z,100060.59
2023-01-18T20:47:04.145Z,100069.47
2023-01-18T20:49:38.316Z,100075.00
2023-01-18T20:52:07.251Z,100069.53
2023-01-18T20:54:36.172Z,100064.63
2023-01-18T20:57:04.768Z,100071.41
2023-01-18T20:59:31.767Z,100076.25
2023-01-18T21:01:58.821Z,100066.09
2023-01-18T21:04:26.105Z,100072.03
2023-01-18T21:06:53.049Z,100072.31
2023-01-18T21:09:20.097Z,100075.09
2023-01-18T21:11:46.931Z,100081.81
2023-01-18T21:14:13.887Z,100075.50
2023-01-18T21:16:40.829Z,100079.03
2023-01-18T21:19:10.137Z,100072.16
2023-01-18T21:21:37.145Z,100076.97
2023-01-18T21:24:04.091Z,100077.41
2023-01-18T21:26:31.737Z,100073.84
2023-01-18T21:28:59.500Z,100075.50
2023-01-18T21:31:26.425Z,100078.22
2023-01-18T21:33:54.730Z,100074.53
2023-01-18T21:36:23.064Z,100072.22
2023-01-18T21:38:50.720Z,100071.78
2023-01-18T21:41:36.597Z,100074.38
2023-01-18T21:44:21.926Z,100070.25
2023-01-18T21:46:51.251Z,100078.84
2023-01-18T21:49:57.670Z,100071.84
2023-01-18T21:52:42.512Z,100079.56
2023-01-18T21:55:09.807Z,100074.91
2023-01-18T21:57:37.759Z,100072.19
2023-01-18T22:00:05.687Z,100076.13
2023-01-18T22:02:34.411Z,100071.38
2023-01-18T22:05:03.288Z,100061.28
2023-01-18T22:07:33.021Z,100066.91
2023-01-18T22:10:05.683Z,100064.50
2023-01-18T22:12:35.799Z,100059.59
2023-01-18T22:15:04.661Z,100058.34
2023-01-18T22:17:31.810Z,100055.91
2023-01-18T22:19:59.364Z,100044.38
2023-01-18T22:22:26.281Z,100036.47
2023-01-18T22:24:53.552Z,100029.03
2023-01-18T22:27:20.732Z,100023.13
2023-01-18T22:29:47.766Z,100027.06
2023-01-18T22:32:16.529Z,100042.91
2023-01-18T22:34:43.465Z,100029.41
2023-01-18T22:37:10.542Z,100020.09
2023-01-18T22:39:37.484Z,100026.53
2023-01-18T22:42:04.804Z,100014.13
2023-01-18T22:44:32.908Z,100022.94
2023-01-18T22:46:59.852Z,100016.56
2023-01-18T22:49:26.825Z,100026.78
2023-01-18T22:51:53.797Z,100018.88
2023-01-18T22:54:22.898Z,100025.72
2023-01-18T22:56:49.941Z,100047.31
2023-01-18T22:59:16.831Z,100035.56
2023-01-18T23:01:43.752Z,100040.69
2023-01-18T23:04:11.451Z,100051.25
2023-01-18T23:06:48.158Z,100036.56
2023-01-18T23:09:17.450Z,100037.38
2023-01-18T23:11:45.566Z,100032.34
2023-01-18T23:14:31.283Z,100019.19
2023-01-18T23:17:16.634Z,100042.66
2023-01-18T23:19:43.476Z,100034.84
2023-01-18T23:22:11.265Z,100036.09
2023-01-18T23:24:39.343Z,100034.13
2023-01-18T23:27:09.898Z,100042.53
2023-01-18T23:29:37.298Z,100044.06
2023-01-18T23:32:04.414Z,100031.78
2023-01-18T23:34:31.256Z,100053.75
2023-01-18T23:36:58.076Z,100051.06
2023-01-18T23:39:43.366Z,100049.91
2023-01-18T23:42:28.681Z,100039.88
2023-01-18T23:45:14.395Z,100054.31
2023-01-18T23:48:00.297Z,100065.88
2023-01-18T23:50:45.881Z,100058.06
2023-01-18T23:53:32.215Z,100057.34
2023-01-18T23:55:59.811Z,100063.63
2023-01-18T23:58:27.708Z,100065.66
